createdAt,value
2022-08-31T00:00:24.768Z,14.33
2022-08-31T00:03:05.759Z,14.29
2022-08-31T00:05:29.567Z,14.28
2022-08-31T00:07:53.402Z,14.28
2022-08-31T00:10:32.314Z,14.24
2022-08-31T00:12:57.455Z,14.20
2022-08-31T00:15:25.629Z,14.21
2022-08-31T00:17:49.999Z,14.26
2022-08-31T00:20:21.643Z,14.13
2022-08-31T00:22:57.782Z,14.14
2022-08-31T00:25:24.063Z,14.08
2022-08-31T00:27:47.979Z,13.93
2022-08-31T00:30:13.624Z,14.02
2022-08-31T00:32:37.555Z,14.05
2022-08-31T00:35:01.287Z,13.88
2022-08-31T00:37:24.991Z,13.77
2022-08-31T00:39:48.851Z,13.85
2022-08-31T00:42:15.166Z,13.82
2022-08-31T00:44:38.911Z,13.85
2022-08-31T00:47:03.262Z,13.78
2022-08-31T00:49:30.692Z,13.85
2022-08-31T00:51:59.147Z,13.80
2022-08-31T00:54:28.127Z,13.75
2022-08-31T00:56:52.441Z,13.71
2022-08-31T00:59:19.939Z,13.64
2022-08-31T01:01:44.081Z,13.68
2022-08-31T01:04:08.058Z,13.69
2022-08-31T01:06:32.455Z,13.72
2022-08-31T01:08:58.631Z,13.68
2022-08-31T01:11:23.252Z,13.65
2022-08-31T01:13:47.639Z,13.62
2022-08-31T01:16:22.290Z,13.64
2022-08-31T01:18:46.907Z,13.65
2022-08-31T01:21:27.724Z,13.60
2022-08-31T01:23:55.659Z,13.58
2022-08-31T01:26:24.998Z,13.56
2022-08-31T01:28:49.355Z,13.52
2022-08-31T01:31:21.457Z,13.62
2022-08-31T01:33:45.146Z,13.66
2022-08-31T01:36:13.146Z,13.60
2022-08-31T01:38:39.596Z,13.60
2022-08-31T01:41:06.710Z,13.70
2022-08-31T01:43:33.956Z,13.61
2022-08-31T01:45:57.883Z,13.66
2022-08-31T01:48:23.563Z,13.72
2022-08-31T01:50:47.468Z,13.85
2022-08-31T01:53:12.131Z,13.73
2022-08-31T01:55:36.651Z,13.82
2022-08-31T01:58:02.697Z,13.83
2022-08-31T02:00:45.246Z,13.78
2022-08-31T02:03:09.572Z,13.95
2022-08-31T02:05:33.650Z,13.89
2022-08-31T02:07:57.763Z,14.05
2022-08-31T02:10:21.575Z,14.00
2022-08-31T02:12:45.348Z,14.00
2022-08-31T02:15:12.414Z,14.08
2022-08-31T02:17:37.790Z,13.87
2022-08-31T02:20:01.947Z,13.97
2022-08-31T02:22:25.699Z,13.93
2022-08-31T02:24:51.451Z,14.08
2022-08-31T02:27:15.112Z,13.81
2022-08-31T02:29:38.739Z,13.92
2022-08-31T02:32:04.236Z,13.95
2022-08-31T02:34:28.050Z,13.89
2022-08-31T02:36:51.883Z,13.78
2022-08-31T02:39:16.028Z,13.82
2022-08-31T02:41:41.060Z,13.75
2022-08-31T02:44:05.607Z,13.88
2022-08-31T02:46:29.876Z,13.94
2022-08-31T02:49:27.174Z,13.61
2022-08-31T02:51:51.241Z,13.86
2022-08-31T02:54:15.674Z,13.83
2022-08-31T02:56:39.545Z,13.78
2022-08-31T02:59:03.229Z,13.69
2022-08-31T03:01:27.503Z,13.75
2022-08-31T03:03:51.639Z,13.57
2022-08-31T03:06:19.529Z,13.55
2022-08-31T03:08:44.022Z,13.41
2022-08-31T03:11:07.696Z,13.66
2022-08-31T03:13:31.359Z,13.62
2022-08-31T03:15:55.124Z,13.50
2022-08-31T03:18:18.911Z,13.56
2022-08-31T03:20:42.612Z,13.51
2022-08-31T03:23:07.903Z,13.54
2022-08-31T03:25:32.354Z,13.59
2022-08-31T03:27:56.710Z,13.50
2022-08-31T03:30:23.658Z,13.50
2022-08-31T03:33:10.109Z,13.43
2022-08-31T03:35:34.487Z,13.45
2022-08-31T03:37:58.461Z,13.35
2022-08-31T03:40:23.698Z,13.28
2022-08-31T03:42:47.711Z,13.26
2022-08-31T03:45:12.943Z,13.28
2022-08-31T03:47:42.732Z,13.22
2022-08-31T03:50:11.827Z,13.19
2022-08-31T03:52:45.794Z,13.26
2022-08-31T03:55:15.181Z,13.29
2022-08-31T03:57:41.550Z,13.22
2022-08-31T04:00:09.732Z,13.12
2022-08-31T04:02:40.119Z,13.02
2022-08-31T04:05:19.408Z,12.89
2022-08-31T04:08:02.033Z,12.84
2022-08-31T04:10:45.978Z,12.86
2022-08-31T04:13:30.318Z,12.84
2022-08-31T04:16:15.776Z,12.86
2022-08-31T04:18:54.871Z,12.86
2022-08-31T04:21:24.276Z,12.86
2022-08-31T04:23:49.503Z,12.87
2022-08-31T04:26:18.885Z,12.73
2022-08-31T04:28:43.931Z,12.76
2022-08-31T04:31:09.492Z,12.77
2022-08-31T04:33:33.307Z,12.70
2022-08-31T04:35:57.250Z,12.71
2022-08-31T04:38:21.758Z,12.84
2022-08-31T04:40:45.820Z,12.71
2022-08-31T04:43:10.144Z,12.61
2022-08-31T04:45:35.310Z,12.57
2022-08-31T04:47:59.207Z,12.61
2022-08-31T04:50:22.893Z,12.60
2022-08-31T04:53:05.512Z,12.47
2022-08-31T04:55:29.303Z,12.59
2022-08-31T04:57:54.183Z,12.39
2022-08-31T05:00:18.132Z,12.64
2022-08-31T05:02:54.266Z,12.55
2022-08-31T05:05:18.471Z,12.70
2022-08-31T05:07:42.129Z,12.61
2022-08-31T05:10:07.363Z,12.59
2022-08-31T05:12:31.963Z,12.60
2022-08-31T05:14:55.699Z,12.66
2022-08-31T05:17:21.947Z,12.60
2022-08-31T05:19:47.388Z,12.67
2022-08-31T05:22:12.983Z,12.68
2022-08-31T05:24:39.023Z,12.86
2022-08-31T05:27:03.593Z,12.82
2022-08-31T05:29:28.271Z,13.01
2022-08-31T05:32:10.291Z,12.95
2022-08-31T05:34:35.714Z,13.13
2022-08-31T05:37:00.782Z,13.24
2022-08-31T05:39:27.263Z,13.19
2022-08-31T05:41:51.088Z,13.28
2022-08-31T05:44:16.733Z,13.31
2022-08-31T05:46:42.093Z,13.40
2022-08-31T05:49:10.954Z,13.56
2022-08-31T05:51:38.327Z,13.47
2022-08-31T05:54:05.059Z,13.54
2022-08-31T05:56:29.751Z,13.69
2022-08-31T05:58:55.438Z,13.83
2022-08-31T06:01:23.587Z,13.91
2022-08-31T06:04:09.054Z,14.03
2022-08-31T06:06:33.373Z,14.30
2022-08-31T06:08:57.953Z,14.57
2022-08-31T06:11:28.391Z,14.95
2022-08-31T06:13:55.275Z,15.16
2022-08-31T06:16:19.995Z,15.81
2022-08-31T06:18:49.976Z,16.39
2022-08-31T06:21:15.655Z,17.34
2022-08-31T06:23:42.467Z,17.60
2022-08-31T06:26:13.164Z,16.90
2022-08-31T06:28:38.327Z,18.42
2022-08-31T06:31:12.174Z,17.88
2022-08-31T06:33:36.467Z,18.34
2022-08-31T06:36:14.003Z,19.70
2022-08-31T06:38:50.393Z,18.21
2022-08-31T06:41:36.820Z,19.69
2022-08-31T06:44:40.388Z,20.67
2022-08-31T06:47:15.536Z,20.65
2022-08-31T06:49:39.253Z,21.21
2022-08-31T06:52:03.395Z,21.49
2022-08-31T06:54:30.453Z,21.20
2022-08-31T06:57:12.950Z,21.37
2022-08-31T06:59:56.527Z,21.55
2022-08-31T07:02:38.706Z,21.59
2022-08-31T07:05:02.616Z,20.63
2022-08-31T07:07:26.264Z,19.65
2022-08-31T07:09:50.451Z,20.42
2022-08-31T07:12:14.237Z,20.02
2022-08-31T07:14:38.591Z,20.25
2022-08-31T07:17:04.747Z,20.32
2022-08-31T07:19:29.811Z,20.43
2022-08-31T07:21:55.590Z,19.79
2022-08-31T07:24:24.346Z,19.57
2022-08-31T07:26:53.275Z,19.36
2022-08-31T07:29:25.550Z,19.01
2022-08-31T07:31:50.526Z,19.02
2022-08-31T07:34:20.282Z,19.27
2022-08-31T07:37:12.941Z,19.20
2022-08-31T07:39:54.294Z,19.31
2022-08-31T07:42:24.999Z,18.94
2022-08-31T07:44:53.264Z,19.02
2022-08-31T07:47:20.490Z,18.90
2022-08-31T07:49:51.195Z,19.21
2022-08-31T07:52:33.146Z,18.83
2022-08-31T07:55:36.191Z,18.82
2022-08-31T07:58:03.952Z,18.39
2022-08-31T08:00:32.094Z,18.41
2022-08-31T08:03:01.696Z,18.39
2022-08-31T08:05:31.932Z,18.46
2022-08-31T08:08:29.439Z,18.34
2022-08-31T08:11:17.677Z,18.61
2022-08-31T08:13:52.208Z,18.47
2022-08-31T08:16:45.385Z,17.76
2022-08-31T08:19:27.904Z,18.45
2022-08-31T08:21:53.187Z,18.65
2022-08-31T08:24:20.619Z,18.68
2022-08-31T08:27:07.561Z,18.39
2022-08-31T08:29:34.195Z,18.45
2022-08-31T08:31:59.909Z,18.55
2022-08-31T08:34:32.534Z,18.58
2022-08-31T08:36:59.161Z,18.67
2022-08-31T08:39:23.281Z,18.60
2022-08-31T08:41:58.395Z,18.77
2022-08-31T08:44:23.326Z,18.64
2022-08-31T08:46:53.129Z,18.64
2022-08-31T08:49:25.956Z,19.00
2022-08-31T08:51:56.163Z,18.98
2022-08-31T08:54:31.745Z,19.13
2022-08-31T08:56:59.615Z,19.19
2022-08-31T08:59:25.444Z,19.38
2022-08-31T09:01:56.429Z,19.22
2022-08-31T09:04:43.890Z,19.38
2022-08-31T09:08:01.785Z,19.09
2022-08-31T09:10:33.483Z,19.38
2022-08-31T09:13:13.255Z,19.47
2022-08-31T09:15:53.562Z,19.57
2022-08-31T09:18:38.563Z,19.74
2022-08-31T09:21:17.310Z,19.59
2022-08-31T09:23:48.594Z,19.34
2022-08-31T09:26:18.484Z,19.11
2022-08-31T09:29:05.907Z,19.62
2022-08-31T09:31:42.226Z,19.65
2022-08-31T09:34:14.437Z,19.78
2022-08-31T09:36:41.221Z,19.61
2022-08-31T09:39:37.218Z,19.75
2022-08-31T09:42:14.633Z,19.64
2022-08-31T09:44:43.410Z,19.96
2022-08-31T09:47:44.575Z,19.78
2022-08-31T09:50:09.873Z,19.85
2022-08-31T09:52:55.330Z,19.75
2022-08-31T09:55:25.425Z,19.94
2022-08-31T09:57:59.256Z,20.24
2022-08-31T10:00:41.433Z,20.77
2022-08-31T10:03:14.214Z,21.00
2022-08-31T10:05:42.667Z,20.57
2022-08-31T10:08:20.474Z,21.12
2022-08-31T10:10:47.174Z,21.47
2022-08-31T10:13:16.965Z,21.83
2022-08-31T10:15:47.085Z,21.10
2022-08-31T10:18:16.587Z,22.11
2022-08-31T10:20:48.474Z,22.21
2022-08-31T10:23:20.824Z,22.24
2022-08-31T10:25:52.738Z,21.68
2022-08-31T10:28:31.732Z,22.17
2022-08-31T10:31:02.452Z,21.73
2022-08-31T10:33:52.283Z,22.47
2022-08-31T10:36:18.023Z,22.65
2022-08-31T10:38:47.783Z,21.91
2022-08-31T10:41:15.491Z,22.53
2022-08-31T10:43:48.702Z,22.10
2022-08-31T10:46:12.427Z,22.28
2022-08-31T10:48:37.273Z,23.19
2022-08-31T10:51:19.491Z,22.43
2022-08-31T10:54:03.217Z,22.39
2022-08-31T10:56:37.338Z,22.81
2022-08-31T10:59:17.223Z,22.97
2022-08-31T11:01:53.629Z,23.16
2022-08-31T11:04:52.529Z,23.58
2022-08-31T11:07:32.007Z,23.64
2022-08-31T11:10:08.676Z,23.60
2022-08-31T11:12:41.729Z,23.71
2022-08-31T11:15:37.585Z,23.24
2022-08-31T11:18:53.705Z,23.33
2022-08-31T11:22:17.507Z,23.29
2022-08-31T11:25:26.037Z,23.33
2022-08-31T11:27:54.782Z,23.72
2022-08-31T11:30:27.917Z,22.79
2022-08-31T11:32:57.698Z,23.06
2022-08-31T11:36:07.359Z,23.31
2022-08-31T11:38:54.944Z,22.97
2022-08-31T11:41:48.226Z,23.03
2022-08-31T11:45:07.221Z,23.92
2022-08-31T11:47:43.540Z,22.83
2022-08-31T11:50:56.624Z,23.01
2022-08-31T11:53:31.269Z,23.43
2022-08-31T11:56:04.358Z,23.20
2022-08-31T11:58:34.149Z,22.70
2022-08-31T12:01:09.723Z,22.40
2022-08-31T12:03:53.335Z,23.27
2022-08-31T12:07:09.030Z,23.51
2022-08-31T12:10:30.688Z,23.51
2022-08-31T12:13:20.253Z,23.81
2022-08-31T12:16:13.067Z,24.13
2022-08-31T12:19:03.035Z,23.28
2022-08-31T12:21:57.843Z,23.53
2022-08-31T12:24:35.398Z,23.70
2022-08-31T12:27:27.958Z,23.73
2022-08-31T12:29:53.864Z,24.17
2022-08-31T12:32:31.269Z,23.34
2022-08-31T12:35:10.138Z,23.40
2022-08-31T12:37:37.895Z,23.71
2022-08-31T12:40:17.288Z,24.19
2022-08-31T12:43:02.584Z,23.72
2022-08-31T12:46:16.262Z,23.42
2022-08-31T12:49:25.149Z,23.66
2022-08-31T12:51:59.063Z,24.56
2022-08-31T12:55:06.960Z,23.80
2022-08-31T12:58:07.241Z,23.71
2022-08-31T13:00:35.309Z,23.78
2022-08-31T13:03:03.611Z,24.08
2022-08-31T13:05:33.911Z,23.53
2022-08-31T13:08:01.605Z,23.25
2022-08-31T13:10:35.274Z,23.19
2022-08-31T13:13:07.599Z,22.87
2022-08-31T13:15:39.889Z,22.94
2022-08-31T13:18:11.545Z,22.85
2022-08-31T13:20:40.788Z,23.24
2022-08-31T13:23:12.069Z,23.15
2022-08-31T13:25:39.626Z,22.97
2022-08-31T13:28:08.408Z,22.38
2022-08-31T13:30:38.780Z,22.88
2022-08-31T13:33:22.168Z,23.48
2022-08-31T13:35:49.824Z,23.35
2022-08-31T13:38:16.420Z,23.74
2022-08-31T13:40:42.057Z,23.46
2022-08-31T13:43:09.171Z,22.52
2022-08-31T13:45:35.410Z,22.66
2022-08-31T13:48:01.505Z,22.76
2022-08-31T13:50:29.187Z,23.12
2022-08-31T13:53:22.986Z,23.03
2022-08-31T13:55:44.197Z,23.02
2022-08-31T13:58:12.884Z,22.98
2022-08-31T14:00:41.840Z,23.29
2022-08-31T14:03:41.103Z,23.45
2022-08-31T14:06:23.877Z,23.78
2022-08-31T14:08:50.056Z,24.21
2022-08-31T14:11:15.205Z,23.66
2022-08-31T14:13:39.893Z,23.82
2022-08-31T14:16:09.409Z,23.27
2022-08-31T14:18:42.952Z,23.46
2022-08-31T14:21:23.509Z,23.56
2022-08-31T14:23:51.781Z,23.84
2022-08-31T14:26:21.315Z,23.80
2022-08-31T14:28:48.568Z,23.93
2022-08-31T14:31:23.104Z,23.64
2022-08-31T14:33:48.088Z,23.74
2022-08-31T14:36:15.463Z,23.53
2022-08-31T14:38:39.140Z,22.85
2022-08-31T14:41:02.925Z,23.29
2022-08-31T14:43:28.078Z,23.28
2022-08-31T14:45:52.316Z,23.21
2022-08-31T14:48:19.258Z,22.97
2022-08-31T14:50:43.654Z,22.70
2022-08-31T14:53:10.278Z,22.68
2022-08-31T14:55:33.916Z,22.80
2022-08-31T14:58:05.161Z,23.23
2022-08-31T15:00:31.770Z,22.52
2022-08-31T15:02:56.261Z,22.69
2022-08-31T15:05:23.364Z,22.65
2022-08-31T15:07:49.217Z,22.42
2022-08-31T15:10:13.479Z,22.53
2022-08-31T15:12:37.308Z,22.41
2022-08-31T15:15:00.980Z,22.55
2022-08-31T15:17:26.072Z,22.09
2022-08-31T15:19:55.231Z,22.57
2022-08-31T15:22:19.510Z,22.85
2022-08-31T15:24:44.865Z,22.38
2022-08-31T15:27:13.536Z,22.51
2022-08-31T15:29:37.192Z,22.34
2022-08-31T15:32:01.154Z,22.29
2022-08-31T15:34:29.554Z,22.51
2022-08-31T15:36:56.958Z,22.06
2022-08-31T15:39:20.660Z,22.26
2022-08-31T15:41:44.592Z,22.20
2022-08-31T15:44:10.377Z,22.16
2022-08-31T15:46:51.597Z,22.02
2022-08-31T15:49:15.264Z,22.03
2022-08-31T15:54:34.268Z,21.78
2022-08-31T15:56:58.328Z,21.85
2022-08-31T15:59:22.886Z,21.72
2022-08-31T16:01:46.654Z,21.66
2022-08-31T16:04:19.139Z,21.80
2022-08-31T16:06:44.444Z,21.68
2022-08-31T16:09:09.681Z,21.60
2022-08-31T16:11:37.037Z,21.62
2022-08-31T16:14:01.248Z,21.59
2022-08-31T16:16:25.078Z,21.48
2022-08-31T16:18:52.865Z,21.13
2022-08-31T16:21:20.191Z,21.25
2022-08-31T16:23:45.279Z,21.02
2022-08-31T16:26:11.464Z,21.10
2022-08-31T16:28:36.558Z,20.97
2022-08-31T16:31:00.179Z,21.07
2022-08-31T16:33:23.915Z,21.02
2022-08-31T16:35:47.826Z,21.25
2022-08-31T16:38:11.519Z,20.98
2022-08-31T16:40:36.783Z,21.02
2022-08-31T16:43:00.434Z,20.98
2022-08-31T16:45:24.255Z,20.96
2022-08-31T16:47:47.921Z,20.67
2022-08-31T16:50:11.423Z,20.84
2022-08-31T16:52:35.530Z,20.84
2022-08-31T16:54:59.402Z,20.62
2022-08-31T16:57:28.335Z,20.75
2022-08-31T16:59:52.377Z,20.50
2022-08-31T17:02:17.853Z,20.70
2022-08-31T17:04:58.581Z,20.77
2022-08-31T17:07:25.180Z,20.72
2022-08-31T17:09:49.064Z,20.54
2022-08-31T17:12:17.330Z,20.34
2022-08-31T17:14:47.077Z,20.48
2022-08-31T17:17:14.803Z,20.18
2022-08-31T17:19:40.661Z,20.04
2022-08-31T17:22:07.339Z,20.15
2022-08-31T17:24:33.806Z,20.14
2022-08-31T17:27:01.336Z,20.05
2022-08-31T17:29:26.789Z,20.21
2022-08-31T17:31:55.389Z,20.25
2022-08-31T17:34:22.841Z,20.00
2022-08-31T17:36:50.082Z,20.10
2022-08-31T17:39:17.220Z,20.11
2022-08-31T17:41:43.341Z,20.05
2022-08-31T17:44:07.897Z,19.95
2022-08-31T17:46:32.112Z,20.08
2022-08-31T17:48:58.100Z,19.75
2022-08-31T17:51:27.454Z,19.60
2022-08-31T17:53:51.056Z,19.59
2022-08-31T17:56:16.410Z,19.36
2022-08-31T17:58:40.010Z,19.37
2022-08-31T18:01:03.774Z,19.42
2022-08-31T18:03:27.920Z,19.43
2022-08-31T18:05:54.311Z,19.37
2022-08-31T18:08:19.730Z,19.30
2022-08-31T18:10:43.498Z,19.24
2022-08-31T18:13:07.436Z,19.23
2022-08-31T18:15:31.145Z,19.20
2022-08-31T18:17:56.394Z,19.15
2022-08-31T18:20:20.218Z,18.94
2022-08-31T18:22:50.076Z,18.99
2022-08-31T18:25:15.906Z,18.90
2022-08-31T18:27:39.725Z,18.87
2022-08-31T18:30:03.398Z,18.74
2022-08-31T18:32:28.722Z,18.68
2022-08-31T18:34:57.159Z,18.66
2022-08-31T18:37:22.294Z,18.60
2022-08-31T18:40:08.154Z,18.45
2022-08-31T18:42:49.629Z,18.22
2022-08-31T18:45:19.898Z,18.25
2022-08-31T18:48:01.558Z,18.17
2022-08-31T18:50:35.053Z,18.11
2022-08-31T18:53:01.226Z,17.98
2022-08-31T18:55:26.225Z,17.92
2022-08-31T18:57:49.919Z,17.83
2022-08-31T19:00:16.410Z,17.68
2022-08-31T19:02:41.389Z,17.70
2022-08-31T19:05:05.591Z,17.62
2022-08-31T19:07:29.271Z,17.51
2022-08-31T19:09:53.137Z,17.45
2022-08-31T19:12:19.591Z,17.46
2022-08-31T19:14:45.110Z,17.37
2022-08-31T19:17:08.899Z,17.30
2022-08-31T19:19:33.408Z,17.22
2022-08-31T19:21:58.129Z,17.14
2022-08-31T19:24:22.448Z,16.95
2022-08-31T19:26:49.714Z,16.93
2022-08-31T19:29:22.957Z,16.97
2022-08-31T19:31:49.530Z,16.93
2022-08-31T19:34:16.024Z,16.85
2022-08-31T19:36:41.842Z,16.79
2022-08-31T19:39:05.695Z,16.78
2022-08-31T19:41:30.269Z,16.65
2022-08-31T19:44:07.330Z,16.66
2022-08-31T19:46:33.391Z,16.57
2022-08-31T19:48:59.813Z,16.60
2022-08-31T19:51:25.777Z,16.43
2022-08-31T19:53:50.640Z,16.39
2022-08-31T19:56:17.220Z,16.31
2022-08-31T19:58:40.831Z,16.28
2022-08-31T20:01:07.682Z,16.22
2022-08-31T20:03:34.116Z,16.02
2022-08-31T20:05:59.457Z,16.08
2022-08-31T20:08:23.104Z,16.09
2022-08-31T20:10:47.749Z,16.03
2022-08-31T20:13:12.493Z,15.91
2022-08-31T20:15:40.573Z,15.93
2022-08-31T20:18:04.179Z,15.91
2022-08-31T20:20:29.318Z,15.86
2022-08-31T20:22:54.106Z,15.80
2022-08-31T20:25:18.986Z,15.77
2022-08-31T20:27:42.747Z,15.65
2022-08-31T20:30:08.574Z,15.64
2022-08-31T20:32:35.026Z,15.59
2022-08-31T20:34:59.097Z,15.56
2022-08-31T20:37:25.473Z,15.48
2022-08-31T20:39:49.305Z,15.45
2022-08-31T20:42:12.918Z,15.40
2022-08-31T20:44:38.686Z,15.39
2022-08-31T20:47:22.994Z,15.33
2022-08-31T20:49:53.685Z,15.34
2022-08-31T20:52:18.479Z,15.26
2022-08-31T20:54:44.563Z,15.26
2022-08-31T20:57:10.281Z,15.11
2022-08-31T20:59:34.564Z,15.11
2022-08-31T21:02:04.132Z,15.08
2022-08-31T21:04:29.938Z,15.08
2022-08-31T21:06:53.643Z,15.00
2022-08-31T21:09:17.554Z,15.00
2022-08-31T21:11:43.863Z,14.95
2022-08-31T21:14:07.755Z,14.97
2022-08-31T21:16:33.127Z,14.94
2022-08-31T21:18:57.027Z,14.86
2022-08-31T21:21:20.647Z,14.87
2022-08-31T21:23:45.644Z,14.86
2022-08-31T21:26:09.911Z,14.84
2022-08-31T21:28:38.594Z,14.91
2022-08-31T21:31:18.252Z,14.80
2022-08-31T21:33:48.179Z,14.83
2022-08-31T21:36:16.998Z,14.80
2022-08-31T21:38:40.686Z,14.88
2022-08-31T21:41:05.033Z,14.71
2022-08-31T21:43:29.400Z,14.83
2022-08-31T21:46:03.597Z,14.84
2022-08-31T21:48:29.384Z,14.72
2022-08-31T21:50:53.027Z,14.76
2022-08-31T21:53:17.178Z,14.77
2022-08-31T21:55:40.886Z,14.73
2022-08-31T21:58:04.574Z,14.51
2022-08-31T22:00:29.616Z,14.65
2022-08-31T22:02:54.904Z,14.64
2022-08-31T22:05:18.845Z,14.69
2022-08-31T22:07:43.047Z,14.62
2022-08-31T22:10:08.986Z,14.48
2022-08-31T22:12:32.796Z,14.51
2022-08-31T22:14:58.072Z,14.53
2022-08-31T22:17:36.980Z,14.52
2022-08-31T22:20:10.905Z,14.48
2022-08-31T22:22:35.087Z,14.53
2022-08-31T22:24:58.817Z,14.43
2022-08-31T22:27:22.995Z,14.46
2022-08-31T22:29:46.673Z,14.44
2022-08-31T22:32:13.843Z,14.40
2022-08-31T22:34:38.912Z,14.45
2022-08-31T22:37:04.616Z,14.40
2022-08-31T22:39:30.764Z,14.23
2022-08-31T22:41:55.744Z,14.30
2022-08-31T22:44:23.018Z,14.39
2022-08-31T22:46:47.618Z,14.36
2022-08-31T22:49:11.700Z,14.37
2022-08-31T22:51:36.615Z,14.32
2022-08-31T22:54:01.679Z,14.36
2022-08-31T22:56:28.460Z,14.38
2022-08-31T22:58:52.787Z,14.39
2022-08-31T23:01:21.090Z,14.27
2022-08-31T23:03:48.443Z,14.23
2022-08-31T23:06:12.299Z,14.15
2022-08-31T23:08:35.971Z,14.32
2022-08-31T23:11:00.974Z,14.36
2022-08-31T23:13:44.684Z,14.27
2022-08-31T23:16:09.402Z,14.35
2022-08-31T23:18:33.111Z,14.40
2022-08-31T23:20:57.143Z,14.40
2022-08-31T23:23:21.652Z,14.40
2022-08-31T23:25:45.300Z,14.39
2022-08-31T23:28:12.563Z,14.48
2022-08-31T23:30:36.951Z,14.52
2022-08-31T23:33:02.251Z,14.57
2022-08-31T23:35:27.032Z,14.60
2022-08-31T23:37:52.204Z,14.71
2022-08-31T23:40:16.618Z,14.64
2022-08-31T23:42:41.232Z,14.80
2022-08-31T23:45:09.966Z,14.69
2022-08-31T23:47:33.818Z,14.84
2022-08-31T23:50:02.297Z,14.85
2022-08-31T23:52:29.163Z,14.80
2022-08-31T23:55:00.421Z,14.94
2022-08-31T23:57:32.388Z,14.84
